createdAt,value
2022-08-05T00:00:50.818Z,4.35
2022-08-05T00:03:52.437Z,4.93
2022-08-05T00:06:54.615Z,4.20
2022-08-05T00:09:57.412Z,4.88
2022-08-05T00:13:01.259Z,4.90
2022-08-05T00:16:05.699Z,4.13
2022-08-05T00:19:10.411Z,4.10
2022-08-05T00:22:12.053Z,4.50
2022-08-05T00:25:13.616Z,4.28
2022-08-05T00:28:21.130Z,3.92
2022-08-05T00:31:52.910Z,5.25
2022-08-05T00:35:05.143Z,4.53
2022-08-05T00:38:09.464Z,4.40
2022-08-05T00:41:11.795Z,4.35
2022-08-05T00:44:13.865Z,4.70
2022-08-05T00:47:16.406Z,4.60
2022-08-05T00:50:18.147Z,4.85
2022-08-05T00:54:00.867Z,4.97
2022-08-05T00:56:51.272Z,5.57
2022-08-05T00:59:53.663Z,4.88
2022-08-05T01:02:56.209Z,5.15
2022-08-05T01:05:57.925Z,5.82
2022-08-05T01:09:00.518Z,6.03
2022-08-05T01:12:17.982Z,6.57
2022-08-05T01:15:36.249Z,5.88
2022-08-05T01:18:43.140Z,5.68
2022-08-05T01:22:10.936Z,6.47
2022-08-05T01:25:40.739Z,6.50
2022-08-05T01:28:56.596Z,6.22
2022-08-05T01:32:02.570Z,6.28
2022-08-05T01:35:51.722Z,6.55
2022-08-05T01:38:41.744Z,6.97
2022-08-05T01:41:46.284Z,6.65
2022-08-05T01:44:54.262Z,7.32
2022-08-05T01:47:59.926Z,8.13
2022-08-05T01:51:11.976Z,7.85
2022-08-05T01:54:16.044Z,8.32
2022-08-05T01:58:10.983Z,7.53
2022-08-05T02:00:51.503Z,7.43
2022-08-05T02:03:55.505Z,8.15
2022-08-05T02:06:59.773Z,7.20
2022-08-05T02:10:08.003Z,6.80
2022-08-05T02:13:18.060Z,7.18
2022-08-05T02:16:23.710Z,7.20
2022-08-05T02:19:28.326Z,8.43
2022-08-05T02:23:02.809Z,7.15
2022-08-05T02:26:09.807Z,7.20
2022-08-05T02:29:24.172Z,6.20
2022-08-05T02:32:31.505Z,6.80
2022-08-05T02:35:37.666Z,7.63
2022-08-05T02:38:41.569Z,8.13
2022-08-05T02:42:00.475Z,7.20
2022-08-05T02:45:04.447Z,8.68
2022-08-05T02:48:12.523Z,8.38
2022-08-05T02:51:16.961Z,8.93
2022-08-05T02:54:36.393Z,9.10
2022-08-05T03:01:02.457Z,8.63
2022-08-05T03:04:11.843Z,9.10
2022-08-05T03:07:24.704Z,9.60
2022-08-05T03:10:35.978Z,9.95
2022-08-05T03:13:52.267Z,10.32
2022-08-05T03:17:02.145Z,11.25
2022-08-05T03:20:10.171Z,11.38
2022-08-05T03:23:12.915Z,11.00
2022-08-05T03:26:30.955Z,11.50
2022-08-05T03:29:44.855Z,11.47
2022-08-05T03:32:56.655Z,10.15
2022-08-05T03:35:58.989Z,11.43
2022-08-05T03:39:07.695Z,10.40
2022-08-05T03:42:09.573Z,9.90
2022-08-05T03:45:21.499Z,9.52
2022-08-05T03:48:24.715Z,9.68
2022-08-05T03:52:50.258Z,10.55
2022-08-05T03:56:05.885Z,11.13
2022-08-05T03:58:33.264Z,10.98
2022-08-05T04:01:39.624Z,10.18
2022-08-05T04:04:42.684Z,12.23
2022-08-05T04:07:57.442Z,11.30
2022-08-05T04:11:01.739Z,11.38
2022-08-05T04:14:04.530Z,12.35
2022-08-05T04:17:08.352Z,12.82
2022-08-05T04:20:21.644Z,13.43
2022-08-05T04:24:05.200Z,16.75
2022-08-05T04:26:49.024Z,18.77
2022-08-05T04:29:50.607Z,18.80
2022-08-05T04:32:52.527Z,22.75
2022-08-05T04:36:15.760Z,25.98
2022-08-05T04:39:16.059Z,22.55
2022-08-05T04:42:17.695Z,26.13
2022-08-05T04:45:47.884Z,25.23
2022-08-05T04:48:48.451Z,20.95
2022-08-05T04:52:00.269Z,20.30
2022-08-05T04:55:13.761Z,18.55
2022-08-05T04:58:17.694Z,20.33
2022-08-05T05:02:08.196Z,18.42
2022-08-05T05:04:49.896Z,19.73
2022-08-05T05:07:56.490Z,21.52
2022-08-05T05:11:02.861Z,27.85
2022-08-05T05:14:04.530Z,27.63
2022-08-05T05:17:10.231Z,29.13
2022-08-05T05:20:13.119Z,33.38
2022-08-05T05:23:19.841Z,30.10
2022-08-05T05:26:28.665Z,31.45
2022-08-05T05:30:03.454Z,34.55
2022-08-05T05:32:56.362Z,36.38
2022-08-05T05:35:58.027Z,37.25
2022-08-05T05:39:03.838Z,36.70
2022-08-05T05:42:06.155Z,33.03
2022-08-05T05:45:09.231Z,33.78
2022-08-05T05:48:10.884Z,34.60
2022-08-05T05:51:22.847Z,37.05
2022-08-05T05:54:49.771Z,38.25
2022-08-05T05:57:52.855Z,40.83
2022-08-05T06:00:54.820Z,31.05
2022-08-05T06:04:01.544Z,31.00
2022-08-05T06:07:05.327Z,27.33
2022-08-05T06:10:10.467Z,29.60
2022-08-05T06:13:12.308Z,36.70
2022-08-05T06:16:30.697Z,32.97
2022-08-05T06:19:35.677Z,32.72
2022-08-05T06:22:37.495Z,34.83
2022-08-05T06:26:13.802Z,33.67
2022-08-05T06:29:06.929Z,32.63
2022-08-05T06:32:29.143Z,32.22
2022-08-05T06:36:08.209Z,31.60
2022-08-05T06:38:54.607Z,27.70
2022-08-05T06:42:04.113Z,28.20
2022-08-05T06:45:08.620Z,26.13
2022-08-05T06:48:44.248Z,27.50
2022-08-05T06:51:32.547Z,25.88
2022-08-05T06:54:34.148Z,21.98
2022-08-05T06:57:57.372Z,20.45
2022-08-05T07:01:00.213Z,18.20
2022-08-05T07:04:02.447Z,16.73
2022-08-05T07:07:06.250Z,16.92
2022-08-05T07:10:10.504Z,16.95
2022-08-05T07:13:57.510Z,16.52
2022-08-05T07:17:59.534Z,15.73
2022-08-05T07:20:38.848Z,14.73
2022-08-05T07:23:49.848Z,15.05
2022-08-05T07:26:54.122Z,13.25
2022-08-05T07:30:22.784Z,12.55
2022-08-05T07:33:21.414Z,11.30
2022-08-05T07:36:39.010Z,12.65
2022-08-05T07:40:25.973Z,12.63
2022-08-05T07:43:07.371Z,12.50
2022-08-05T07:46:24.773Z,13.02
2022-08-05T07:49:27.442Z,12.38
2022-08-05T07:52:29.539Z,12.05
2022-08-05T07:56:05.627Z,11.80
2022-08-05T07:58:58.996Z,10.88
2022-08-05T08:02:02.270Z,9.98
2022-08-05T08:05:05.207Z,10.40
2022-08-05T08:08:07.014Z,9.77
2022-08-05T08:11:16.038Z,9.82
2022-08-05T08:14:18.939Z,10.00
2022-08-05T08:17:21.300Z,10.95
2022-08-05T08:20:59.728Z,10.25
2022-08-05T08:24:03.357Z,9.05
2022-08-05T08:27:06.879Z,9.00
2022-08-05T08:30:27.676Z,9.05
2022-08-05T08:33:38.040Z,10.95
2022-08-05T08:36:47.603Z,8.23
2022-08-05T08:39:54.303Z,9.75
2022-08-05T08:42:56.651Z,10.55
2022-08-05T08:46:01.479Z,8.77
2022-08-05T08:50:05.937Z,10.27
2022-08-05T08:52:30.692Z,10.30
2022-08-05T08:56:04.312Z,9.52
2022-08-05T08:58:59.142Z,9.70
2022-08-05T09:02:06.103Z,9.15
2022-08-05T09:05:16.537Z,10.00
2022-08-05T09:08:19.684Z,10.07
2022-08-05T09:11:52.940Z,10.52
2022-08-05T09:14:57.859Z,11.05
2022-08-05T09:18:02.794Z,10.20
2022-08-05T09:21:20.439Z,11.10
2022-08-05T09:24:22.980Z,10.60
2022-08-05T09:28:05.812Z,10.18
2022-08-05T09:31:18.246Z,10.18
2022-08-05T09:34:26.135Z,11.02
2022-08-05T09:38:12.672Z,8.55
2022-08-05T09:40:52.585Z,10.23
2022-08-05T09:43:55.242Z,8.88
2022-08-05T09:47:10.226Z,7.80
2022-08-05T09:50:18.043Z,8.63
2022-08-05T09:53:53.711Z,7.35
2022-08-05T09:57:01.791Z,8.65
2022-08-05T10:00:20.190Z,8.13
2022-08-05T10:03:56.599Z,7.35
2022-08-05T10:06:59.658Z,8.38
2022-08-05T10:10:14.885Z,7.47
2022-08-05T10:13:45.551Z,8.65
2022-08-05T10:16:52.836Z,7.38
2022-08-05T10:20:03.778Z,8.98
2022-08-05T10:23:33.890Z,7.25
2022-08-05T10:26:51.845Z,6.82
2022-08-05T10:30:07.194Z,7.05
2022-08-05T10:33:15.772Z,6.88
2022-08-05T10:36:17.447Z,7.50
2022-08-05T10:39:59.442Z,7.20
2022-08-05T10:42:56.059Z,5.97
2022-08-05T10:46:06.254Z,6.55
2022-08-05T10:49:10.521Z,6.18
2022-08-05T10:52:49.387Z,5.32
2022-08-05T10:56:25.494Z,5.00
2022-08-05T11:00:03.257Z,5.72
2022-08-05T11:03:23.857Z,4.70
2022-08-05T11:06:31.204Z,4.45
2022-08-05T11:09:46.305Z,4.53
2022-08-05T11:12:50.860Z,4.45
2022-08-05T11:16:23.374Z,5.40
2022-08-05T11:20:10.111Z,5.18
2022-08-05T11:24:02.248Z,5.57
2022-08-05T11:27:10.773Z,5.43
2022-08-05T11:30:13.782Z,5.47
2022-08-05T11:33:43.973Z,6.78
2022-08-05T11:36:53.009Z,5.82
2022-08-05T11:40:02.815Z,5.70
2022-08-05T11:43:05.404Z,6.03
2022-08-05T11:46:14.948Z,5.15
2022-08-05T11:49:20.222Z,5.85
2022-08-05T11:52:29.259Z,5.60
2022-08-05T11:55:32.140Z,5.78
2022-08-05T11:58:40.118Z,5.32
2022-08-05T12:01:53.859Z,5.05
2022-08-05T12:04:59.568Z,4.53
2022-08-05T12:08:10.500Z,5.07
2022-08-05T12:11:21.797Z,4.47
2022-08-05T12:14:25.296Z,3.85
2022-08-05T12:18:10.030Z,3.50
2022-08-05T12:20:50.936Z,3.28
2022-08-05T12:24:04.810Z,4.25
2022-08-05T12:27:09.535Z,3.58
2022-08-05T12:30:15.367Z,4.03
2022-08-05T12:33:27.929Z,3.92
2022-08-05T12:36:39.844Z,3.53
2022-08-05T12:39:42.934Z,3.38
2022-08-05T12:42:45.967Z,3.30
2022-08-05T12:45:55.383Z,3.65
2022-08-05T12:49:13.193Z,3.75
2022-08-05T12:52:23.802Z,3.20
2022-08-05T12:55:32.508Z,3.22
2022-08-05T12:58:52.626Z,3.22
2022-08-05T13:02:07.382Z,2.88
2022-08-05T13:05:12.749Z,3.28
2022-08-05T13:08:18.348Z,3.72
2022-08-05T13:11:47.017Z,3.00
2022-08-05T13:15:05.038Z,3.67
2022-08-05T13:18:08.430Z,3.70
2022-08-05T13:21:10.099Z,3.40
2022-08-05T13:24:14.183Z,3.72
2022-08-05T13:27:35.600Z,2.53
2022-08-05T13:30:40.198Z,2.53
2022-08-05T13:34:23.515Z,2.70
2022-08-05T13:37:03.852Z,2.65
2022-08-05T13:40:16.336Z,2.80
2022-08-05T13:43:45.475Z,2.20
2022-08-05T13:47:04.956Z,2.20
2022-08-05T13:50:16.265Z,2.40
2022-08-05T13:53:18.322Z,2.40
2022-08-05T13:56:20.403Z,2.40
2022-08-05T13:59:24.429Z,2.38
2022-08-05T14:02:29.933Z,2.40
2022-08-05T14:06:24.406Z,2.20
2022-08-05T14:08:54.572Z,1.73
2022-08-05T14:12:04.147Z,2.40
2022-08-05T14:16:08.733Z,2.50
2022-08-05T14:18:39.915Z,1.63
2022-08-05T14:22:10.278Z,1.92
2022-08-05T14:25:06.316Z,1.92
2022-08-05T14:28:26.239Z,1.90
2022-08-05T14:32:03.227Z,1.60
2022-08-05T14:34:50.813Z,1.80
2022-08-05T14:37:55.400Z,1.70
2022-08-05T14:40:57.393Z,2.00
2022-08-05T14:44:09.702Z,1.60
2022-08-05T14:48:03.626Z,1.65
2022-08-05T14:50:42.495Z,1.38
2022-08-05T14:53:44.992Z,1.35
2022-08-05T14:56:47.192Z,1.15
2022-08-05T14:59:48.894Z,1.27
2022-08-05T15:02:50.835Z,1.08
2022-08-05T15:06:07.297Z,1.30
2022-08-05T15:09:14.359Z,0.98
2022-08-05T15:12:17.302Z,1.20
2022-08-05T15:15:54.960Z,1.33
2022-08-05T15:18:40.716Z,1.20
2022-08-05T15:21:42.956Z,1.33
2022-08-05T15:24:44.699Z,1.30
2022-08-05T15:27:52.126Z,1.00
2022-08-05T15:30:54.750Z,0.98
2022-08-05T15:34:04.969Z,1.23
2022-08-05T15:38:08.534Z,1.60
2022-08-05T15:40:39.872Z,1.30
2022-08-05T15:44:01.910Z,1.30
2022-08-05T15:47:06.096Z,1.30
2022-08-05T15:50:08.717Z,1.23
2022-08-05T15:53:17.182Z,1.10
2022-08-05T15:56:22.115Z,1.10
2022-08-05T15:59:24.522Z,1.05
2022-08-05T16:02:26.232Z,1.20
2022-08-05T16:05:30.406Z,1.30
2022-08-05T16:08:32.183Z,1.25
2022-08-05T16:11:42.521Z,1.30
2022-08-05T16:14:45.205Z,1.60
2022-08-05T16:17:58.023Z,1.08
2022-08-05T16:21:04.551Z,1.00
2022-08-05T16:24:07.558Z,1.02
2022-08-05T16:27:15.987Z,0.98
2022-08-05T16:30:23.365Z,0.95
2022-08-05T16:33:41.411Z,1.20
2022-08-05T16:36:43.576Z,1.40
2022-08-05T16:40:04.666Z,1.17
2022-08-05T16:43:06.946Z,1.05
2022-08-05T16:46:23.606Z,1.17
2022-08-05T16:49:26.451Z,0.98
2022-08-05T16:52:33.525Z,0.95
2022-08-05T16:55:46.864Z,1.33
2022-08-05T16:58:49.200Z,1.00
2022-08-05T17:01:54.541Z,1.20
2022-08-05T17:04:57.602Z,0.90
2022-08-05T17:07:59.192Z,1.30
2022-08-05T17:11:01.689Z,1.00
2022-08-05T17:14:05.800Z,1.00
2022-08-05T17:17:14.643Z,1.25
2022-08-05T17:20:17.035Z,1.00
2022-08-05T17:24:03.636Z,0.90
2022-08-05T17:26:40.940Z,0.90
2022-08-05T17:29:42.812Z,0.98
2022-08-05T17:32:44.817Z,0.88
2022-08-05T17:36:08.682Z,1.10
2022-08-05T17:39:24.272Z,0.80
2022-08-05T17:42:32.980Z,1.00
2022-08-05T17:45:38.502Z,0.80
2022-08-05T17:48:43.214Z,0.90
2022-08-05T17:51:47.225Z,0.90
2022-08-05T17:54:53.085Z,0.85
2022-08-05T17:57:56.228Z,1.10
2022-08-05T18:00:58.827Z,0.80
2022-08-05T18:04:04.793Z,1.20
2022-08-05T18:07:12.198Z,1.40
2022-08-05T18:10:21.095Z,1.55
2022-08-05T18:13:23.092Z,1.17
2022-08-05T18:16:27.551Z,1.13
2022-08-05T18:19:30.067Z,1.38
2022-08-05T18:22:36.239Z,1.10
2022-08-05T18:25:48.133Z,1.10
2022-08-05T18:29:00.212Z,1.00
2022-08-05T18:32:02.931Z,1.38
2022-08-05T18:35:05.394Z,1.02
2022-08-05T18:38:07.666Z,1.38
2022-08-05T18:41:57.640Z,1.10
2022-08-05T18:44:34.865Z,1.20
2022-08-05T18:47:37.988Z,1.33
2022-08-05T18:51:01.682Z,1.00
2022-08-05T18:54:20.240Z,1.40
2022-08-05T18:57:23.929Z,1.30
2022-08-05T19:00:29.193Z,1.08
2022-08-05T19:03:52.743Z,1.20
2022-08-05T19:06:53.637Z,1.40
2022-08-05T19:09:56.286Z,1.27
2022-08-05T19:12:58.085Z,1.17
2022-08-05T19:16:03.521Z,1.20
2022-08-05T19:19:05.744Z,1.10
2022-08-05T19:22:07.448Z,1.13
2022-08-05T19:25:10.972Z,1.20
2022-08-05T19:28:32.781Z,1.05
2022-08-05T19:31:34.820Z,1.33
2022-08-05T19:34:54.901Z,1.40
2022-08-05T19:38:06.363Z,1.27
2022-08-05T19:41:10.580Z,1.50
2022-08-05T19:44:13.263Z,1.75
2022-08-05T19:47:21.881Z,1.25
2022-08-05T19:50:28.700Z,1.97
2022-08-05T19:54:04.002Z,1.45
2022-08-05T19:56:54.749Z,1.40
2022-08-05T20:00:01.739Z,1.13
2022-08-05T20:03:09.133Z,1.50
2022-08-05T20:06:11.801Z,1.48
2022-08-05T20:09:17.940Z,1.27
2022-08-05T20:12:19.855Z,1.27
2022-08-05T20:15:51.760Z,1.50
2022-08-05T20:18:45.007Z,1.10
2022-08-05T20:21:46.796Z,1.40
2022-08-05T20:24:48.650Z,1.10
2022-08-05T20:27:50.673Z,1.85
2022-08-05T20:30:52.426Z,1.33
2022-08-05T20:33:54.562Z,1.38
2022-08-05T20:36:57.593Z,1.63
2022-08-05T20:40:00.385Z,1.92
2022-08-05T20:43:05.145Z,1.30
2022-08-05T20:46:07.951Z,1.55
2022-08-05T20:49:10.594Z,1.50
2022-08-05T20:52:18.910Z,1.77
2022-08-05T20:55:56.551Z,1.55
2022-08-05T20:58:45.500Z,1.40
2022-08-05T21:01:49.626Z,1.30
2022-08-05T21:04:59.189Z,1.10
2022-08-05T21:08:05.510Z,1.30
2022-08-05T21:12:06.577Z,1.30
2022-08-05T21:14:37.335Z,1.25
2022-08-05T21:17:40.504Z,2.58
2022-08-05T21:20:46.601Z,2.17
2022-08-05T21:23:50.407Z,1.60
2022-08-05T21:26:58.792Z,1.35
2022-08-05T21:30:02.145Z,1.42
2022-08-05T21:33:10.877Z,1.70
2022-08-05T21:36:42.324Z,1.30
2022-08-05T21:39:52.284Z,1.70
2022-08-05T21:42:59.211Z,1.90
2022-08-05T21:46:04.947Z,1.90
2022-08-05T21:49:48.128Z,1.45
2022-08-05T21:52:37.684Z,1.48
2022-08-05T21:56:06.191Z,3.00
2022-08-05T21:59:24.072Z,1.30
2022-08-05T22:02:30.791Z,1.42
2022-08-05T22:05:49.263Z,1.67
2022-08-05T22:08:56.946Z,1.63
2022-08-05T22:12:10.568Z,1.40
2022-08-05T22:15:16.401Z,1.50
2022-08-05T22:18:28.736Z,2.05
2022-08-05T22:21:32.023Z,1.92
2022-08-05T22:24:53.681Z,1.90
2022-08-05T22:28:08.176Z,1.60
2022-08-05T22:31:13.148Z,1.45
2022-08-05T22:34:25.419Z,1.70
2022-08-05T22:37:58.193Z,1.63
2022-08-05T22:40:55.224Z,1.60
2022-08-05T22:43:59.232Z,1.90
2022-08-05T22:47:01.209Z,1.70
2022-08-05T22:50:20.522Z,2.05
2022-08-05T22:53:25.498Z,1.60
2022-08-05T22:56:40.026Z,1.45
2022-08-05T22:59:43.735Z,1.45
2022-08-05T23:02:48.001Z,1.65
2022-08-05T23:05:50.220Z,1.50
2022-08-05T23:08:52.289Z,2.03
2022-08-05T23:11:53.984Z,1.48
2022-08-05T23:14:55.588Z,1.85
2022-08-05T23:18:01.671Z,1.73
2022-08-05T23:21:04.315Z,1.50
2022-08-05T23:24:11.469Z,1.70
2022-08-05T23:27:13.540Z,1.50
2022-08-05T23:30:16.882Z,1.88
2022-08-05T23:33:25.641Z,1.50
2022-08-05T23:36:44.377Z,2.03
2022-08-05T23:39:54.335Z,1.58
2022-08-05T23:42:56.398Z,1.70
2022-08-05T23:45:58.013Z,1.58
2022-08-05T23:49:02.157Z,1.60
2022-08-05T23:52:27.795Z,1.65
2022-08-05T23:55:31.052Z,1.80
2022-08-05T23:58:32.997Z,2.05
